createdAt,value
2024-03-13T00:00:17.265Z,160.90
2024-03-13T00:03:08.398Z,150.90
2024-03-13T00:05:36.828Z,159.10
2024-03-13T00:08:08.768Z,137.90
2024-03-13T00:10:37.434Z,165.10
2024-03-13T00:13:05.715Z,150.40
2024-03-13T00:15:34.533Z,153.50
2024-03-13T00:18:05.144Z,160.60
2024-03-13T00:20:33.111Z,152.20
2024-03-13T00:23:02.659Z,162.70
2024-03-13T00:25:30.865Z,158.30
2024-03-13T00:27:59.069Z,141.70
2024-03-13T00:30:26.939Z,142.40
2024-03-13T00:32:55.589Z,137.90
2024-03-13T00:35:23.740Z,139.70
2024-03-13T00:37:51.498Z,146.80
2024-03-13T00:40:19.575Z,145.70
2024-03-13T00:42:47.497Z,144.80
2024-03-13T00:45:15.469Z,164.00
2024-03-13T00:47:44.410Z,152.20
2024-03-13T00:50:16.198Z,163.90
2024-03-13T00:52:44.518Z,137.10
2024-03-13T00:55:12.687Z,139.70
2024-03-13T00:57:43.552Z,139.40
2024-03-13T01:00:12.623Z,136.50
2024-03-13T01:02:42.080Z,141.50
2024-03-13T01:05:11.101Z,139.80
2024-03-13T01:07:38.990Z,151.80
2024-03-13T01:10:07.473Z,146.40
2024-03-13T01:12:35.998Z,143.70
2024-03-13T01:15:05.932Z,141.30
2024-03-13T01:17:33.897Z,142.10
2024-03-13T01:20:02.192Z,154.40
2024-03-13T01:22:30.117Z,141.10
2024-03-13T01:24:59.390Z,156.50
2024-03-13T01:27:29.851Z,126.60
2024-03-13T01:29:57.696Z,134.80
2024-03-13T01:32:26.486Z,143.40
2024-03-13T01:34:54.548Z,146.70
2024-03-13T01:37:41.075Z,151.60
2024-03-13T01:40:10.594Z,151.50
2024-03-13T01:42:57.289Z,150.20
2024-03-13T01:46:06.234Z,151.40
2024-03-13T01:48:57.840Z,159.90
2024-03-13T01:51:44.329Z,164.00
2024-03-13T01:54:31.337Z,172.90
2024-03-13T01:57:13.860Z,176.60
2024-03-13T02:00:11.661Z,184.80
2024-03-13T02:02:42.979Z,170.00
2024-03-13T02:05:10.957Z,174.10
2024-03-13T02:07:38.673Z,166.20
2024-03-13T02:10:07.159Z,170.20
2024-03-13T02:12:34.957Z,176.70
2024-03-13T02:15:03.037Z,172.80
2024-03-13T02:17:37.052Z,177.30
2024-03-13T02:20:05.978Z,182.80
2024-03-13T02:22:35.384Z,164.90
2024-03-13T02:25:03.210Z,164.00
2024-03-13T02:27:31.190Z,169.60
2024-03-13T02:29:59.166Z,163.00
2024-03-13T02:32:26.969Z,144.30
2024-03-13T02:34:56.221Z,156.60
2024-03-13T02:37:24.779Z,157.30
2024-03-13T02:39:52.905Z,157.70
2024-03-13T02:42:20.669Z,143.60
2024-03-13T02:44:48.424Z,150.30
2024-03-13T02:47:19.194Z,143.10
2024-03-13T02:49:47.772Z,144.00
2024-03-13T02:52:15.498Z,133.40
2024-03-13T02:54:43.173Z,136.40
2024-03-13T02:57:10.973Z,145.40
2024-03-13T02:59:39.675Z,136.80
2024-03-13T03:02:07.827Z,148.80
2024-03-13T03:04:35.725Z,152.80
2024-03-13T03:07:03.534Z,175.60
2024-03-13T03:09:31.470Z,199.60
2024-03-13T03:11:59.132Z,201.00
2024-03-13T03:14:27.183Z,172.20
2024-03-13T03:16:56.189Z,176.20
2024-03-13T03:19:25.014Z,165.50
2024-03-13T03:21:54.936Z,154.30
2024-03-13T03:24:22.886Z,184.30
2024-03-13T03:26:51.566Z,187.70
2024-03-13T03:29:19.329Z,185.40
2024-03-13T03:31:47.123Z,181.40
2024-03-13T03:34:15.015Z,169.10
2024-03-13T03:36:43.038Z,157.80
2024-03-13T03:39:16.819Z,138.70
2024-03-13T03:41:47.568Z,138.50
2024-03-13T03:44:15.312Z,133.50
2024-03-13T03:46:42.992Z,129.70
2024-03-13T03:49:11.308Z,131.70
2024-03-13T03:51:39.001Z,134.30
2024-03-13T03:54:06.793Z,127.90
2024-03-13T03:56:40.621Z,135.80
2024-03-13T03:59:09.642Z,145.60
2024-03-13T04:01:37.529Z,143.90
2024-03-13T04:04:05.523Z,144.90
2024-03-13T04:06:33.372Z,139.10
2024-03-13T04:09:01.938Z,136.40
2024-03-13T04:11:30.388Z,133.00
2024-03-13T04:13:58.065Z,138.70
2024-03-13T04:16:25.794Z,148.50
2024-03-13T04:18:53.501Z,137.30
2024-03-13T04:21:21.265Z,157.80
2024-03-13T04:23:50.754Z,142.10
2024-03-13T04:26:18.581Z,148.50
2024-03-13T04:28:46.410Z,134.70
2024-03-13T04:31:14.971Z,146.10
2024-03-13T04:33:42.893Z,140.50
2024-03-13T04:36:10.573Z,138.00
2024-03-13T04:38:38.314Z,129.10
2024-03-13T04:41:05.994Z,138.70
2024-03-13T04:43:33.944Z,142.10
2024-03-13T04:46:01.758Z,133.90
2024-03-13T04:48:29.631Z,136.50
2024-03-13T04:50:57.272Z,126.30
2024-03-13T04:53:25.030Z,137.20
2024-03-13T04:55:52.910Z,134.80
2024-03-13T04:58:20.611Z,124.30
2024-03-13T05:00:48.522Z,131.50
2024-03-13T05:03:16.566Z,135.10
2024-03-13T05:05:46.852Z,131.20
2024-03-13T05:08:18.099Z,124.60
2024-03-13T05:10:45.900Z,122.60
2024-03-13T05:13:14.629Z,119.00
2024-03-13T05:15:43.102Z,129.40
2024-03-13T05:18:10.861Z,123.70
2024-03-13T05:20:39.102Z,126.30
2024-03-13T05:23:07.864Z,120.80
2024-03-13T05:25:35.992Z,127.00
2024-03-13T05:28:04.640Z,126.60
2024-03-13T05:30:32.544Z,119.40
2024-03-13T05:33:00.455Z,132.90
2024-03-13T05:35:28.421Z,133.50
2024-03-13T05:37:56.306Z,125.50
2024-03-13T05:40:24.204Z,130.80
2024-03-13T05:42:52.057Z,137.70
2024-03-13T05:45:20.362Z,126.80
2024-03-13T05:47:49.919Z,130.90
2024-03-13T05:50:19.191Z,137.60
2024-03-13T05:52:47.721Z,126.90
2024-03-13T05:55:17.037Z,135.60
2024-03-13T05:57:46.098Z,134.00
2024-03-13T06:00:14.768Z,138.80
2024-03-13T06:02:43.076Z,123.70
2024-03-13T06:05:11.181Z,132.00
2024-03-13T06:07:39.878Z,122.00
2024-03-13T06:10:11.894Z,120.40
2024-03-13T06:12:40.219Z,120.30
2024-03-13T06:15:08.503Z,117.20
2024-03-13T06:17:36.617Z,119.20
2024-03-13T06:20:07.959Z,118.80
2024-03-13T06:22:37.113Z,111.70
2024-03-13T06:25:08.103Z,118.90
2024-03-13T06:27:37.001Z,121.00
2024-03-13T06:30:06.407Z,118.50
2024-03-13T06:32:34.243Z,109.80
2024-03-13T06:35:05.126Z,114.20
2024-03-13T06:37:34.542Z,110.60
2024-03-13T06:40:02.497Z,102.20
2024-03-13T06:42:32.246Z,100.30
2024-03-13T06:45:00.034Z,99.20
2024-03-13T06:47:27.882Z,97.30
2024-03-13T06:49:55.619Z,101.10
2024-03-13T06:52:25.136Z,99.40
2024-03-13T06:54:52.886Z,107.00
2024-03-13T06:57:20.653Z,100.00
2024-03-13T06:59:48.436Z,103.70
2024-03-13T07:02:18.458Z,105.60
2024-03-13T07:04:46.347Z,106.80
2024-03-13T07:07:14.510Z,113.20
2024-03-13T07:09:43.433Z,109.70
2024-03-13T07:12:12.709Z,103.50
2024-03-13T07:14:40.466Z,110.50
2024-03-13T07:17:08.626Z,105.10
2024-03-13T07:19:37.060Z,117.90
2024-03-13T07:22:05.030Z,108.20
2024-03-13T07:24:33.257Z,109.60
2024-03-13T07:27:01.144Z,110.00
2024-03-13T07:29:28.820Z,109.10
2024-03-13T07:31:57.438Z,94.50
2024-03-13T07:34:25.539Z,99.30
2024-03-13T07:36:55.918Z,103.00
2024-03-13T07:39:27.091Z,93.10
2024-03-13T07:41:54.878Z,97.90
2024-03-13T07:44:22.610Z,101.70
2024-03-13T07:46:50.762Z,94.90
2024-03-13T07:49:19.922Z,109.20
2024-03-13T07:51:47.819Z,109.80
2024-03-13T07:54:15.533Z,103.80
2024-03-13T07:56:43.293Z,110.80
2024-03-13T07:59:11.764Z,98.90
2024-03-13T08:01:42.621Z,100.00
2024-03-13T08:04:12.843Z,102.00
2024-03-13T09:07:42.294Z,63.30
2024-03-13T09:10:13.711Z,61.10
2024-03-13T09:12:41.681Z,61.20
2024-03-13T09:15:11.429Z,57.40
2024-03-13T09:17:39.490Z,57.50
2024-03-13T09:20:08.601Z,59.10
2024-03-13T09:22:36.408Z,57.80
2024-03-13T09:25:04.898Z,54.10
2024-03-13T09:27:32.699Z,53.80
2024-03-13T09:30:03.278Z,47.20
2024-03-13T09:32:31.293Z,48.20
2024-03-13T09:34:59.902Z,46.50
2024-03-13T09:37:27.868Z,49.10
2024-03-13T09:39:56.314Z,41.20
2024-03-13T09:42:25.061Z,41.60
2024-03-13T09:44:53.877Z,43.00
2024-03-13T09:47:23.626Z,39.40
2024-03-13T09:49:52.349Z,40.80
2024-03-13T09:52:20.324Z,37.40
2024-03-13T09:54:48.121Z,35.70
2024-03-13T09:57:16.605Z,35.50
2024-03-13T09:59:44.523Z,37.40
2024-03-13T10:02:22.490Z,32.70
2024-03-13T10:04:51.864Z,33.40
2024-03-13T10:07:23.035Z,29.80
2024-03-13T10:09:50.904Z,30.70
2024-03-13T10:12:21.797Z,25.10
2024-03-13T10:14:51.604Z,24.10
2024-03-13T10:17:20.947Z,28.30
2024-03-13T10:19:50.713Z,24.90
2024-03-13T10:22:19.935Z,27.80
2024-03-13T10:24:53.233Z,28.10
2024-03-13T10:27:23.564Z,27.00
2024-03-13T10:29:54.783Z,29.20
2024-03-13T10:32:23.711Z,28.30
2024-03-13T10:34:51.674Z,28.00
2024-03-13T10:37:20.043Z,27.80
2024-03-13T10:39:47.874Z,27.80
2024-03-13T10:42:15.917Z,29.20
2024-03-13T10:44:44.534Z,33.80
2024-03-13T10:47:13.643Z,32.50
2024-03-13T10:49:42.219Z,35.60
2024-03-13T10:52:13.458Z,35.00
2024-03-13T10:54:42.302Z,33.10
2024-03-13T10:57:17.707Z,34.80
2024-03-13T10:59:49.585Z,36.60
2024-03-13T11:02:17.645Z,36.80
2024-03-13T11:04:46.594Z,40.70
2024-03-13T11:07:14.987Z,38.10
2024-03-13T11:09:42.793Z,41.30
2024-03-13T11:12:24.563Z,40.60
2024-03-13T11:14:55.008Z,39.80
2024-03-13T11:17:24.418Z,40.30
2024-03-13T11:20:09.336Z,41.90
2024-03-13T11:22:37.628Z,40.80
2024-03-13T11:25:07.625Z,40.20
2024-03-13T11:27:40.408Z,40.90
2024-03-13T11:30:10.132Z,40.80
2024-03-13T11:32:39.001Z,41.30
2024-03-13T11:35:07.249Z,42.50
2024-03-13T11:37:35.017Z,43.30
2024-03-13T11:40:02.917Z,45.00
2024-03-13T11:42:33.911Z,45.40
2024-03-13T11:45:20.266Z,42.40
2024-03-13T11:47:49.463Z,41.80
2024-03-13T11:50:17.629Z,41.00
2024-03-13T11:53:00.077Z,41.20
2024-03-13T11:55:31.491Z,39.90
2024-03-13T11:58:18.828Z,43.50
2024-03-13T12:00:48.080Z,45.60
2024-03-13T12:03:17.067Z,45.80
2024-03-13T12:05:47.263Z,48.50
2024-03-13T12:08:22.000Z,45.20
2024-03-13T12:10:50.356Z,45.00
2024-03-13T12:13:22.018Z,44.70
2024-03-13T12:15:49.867Z,45.40
2024-03-13T12:18:17.972Z,43.90
2024-03-13T12:20:47.247Z,42.90
2024-03-13T12:23:16.841Z,43.80
2024-03-13T12:25:44.928Z,42.50
2024-03-13T12:28:17.025Z,43.10
2024-03-13T12:30:51.329Z,40.50
2024-03-13T12:33:20.295Z,37.20
2024-03-13T12:35:57.075Z,38.30
2024-03-13T12:38:38.301Z,35.10
2024-03-13T12:41:08.940Z,29.30
2024-03-13T12:43:37.702Z,30.20
2024-03-13T12:46:05.923Z,30.60
2024-03-13T12:48:35.148Z,29.90
2024-03-13T12:51:03.583Z,30.20
2024-03-13T12:53:32.173Z,31.30
2024-03-13T12:56:01.181Z,30.20
2024-03-13T12:58:30.168Z,29.70
2024-03-13T13:01:03.082Z,29.60
2024-03-13T13:03:33.990Z,29.30
2024-03-13T13:06:03.525Z,28.80
2024-03-13T13:08:31.470Z,27.70
2024-03-13T13:10:59.358Z,31.20
2024-03-13T13:13:27.764Z,29.30
2024-03-13T13:15:57.442Z,28.50
2024-03-13T13:18:26.019Z,28.50
2024-03-13T13:20:53.954Z,26.40
2024-03-13T13:23:22.071Z,25.70
2024-03-13T13:25:49.780Z,26.90
2024-03-13T13:28:18.984Z,28.30
2024-03-13T13:30:47.946Z,28.40
2024-03-13T13:33:15.869Z,28.40
2024-03-13T13:35:44.599Z,31.40
2024-03-13T13:38:17.587Z,32.00
2024-03-13T13:40:45.784Z,30.10
2024-03-13T13:43:13.616Z,30.40
2024-03-13T13:45:41.804Z,33.20
2024-03-13T13:48:10.594Z,31.50
2024-03-13T13:50:38.859Z,30.50
2024-03-13T13:53:06.910Z,32.60
2024-03-13T13:55:34.811Z,31.80
2024-03-13T13:58:04.970Z,31.20
2024-03-13T14:00:33.179Z,31.60
2024-03-13T14:03:01.010Z,30.70
2024-03-13T14:05:32.276Z,31.90
2024-03-13T14:08:00.327Z,32.60
2024-03-13T14:10:28.603Z,31.20
2024-03-13T14:12:58.202Z,30.20
2024-03-13T14:15:26.470Z,29.90
2024-03-13T14:17:55.510Z,32.30
2024-03-13T14:20:24.406Z,31.70
2024-03-13T14:22:56.646Z,31.30
2024-03-13T14:25:28.369Z,30.90
2024-03-13T14:27:56.859Z,30.70
2024-03-13T14:30:25.160Z,30.30
2024-03-13T14:32:53.765Z,31.90
2024-03-13T14:35:22.981Z,29.70
2024-03-13T14:37:51.057Z,32.60
2024-03-13T14:40:21.904Z,30.50
2024-03-13T14:42:50.090Z,29.70
2024-03-13T14:45:19.526Z,29.50
2024-03-13T14:47:48.406Z,29.70
2024-03-13T14:50:21.213Z,29.40
2024-03-13T14:55:23.326Z,29.00
2024-03-13T14:57:51.155Z,26.30
2024-03-13T15:00:19.144Z,27.90
2024-03-13T15:02:48.031Z,26.70
2024-03-13T15:05:16.260Z,27.70
2024-03-13T15:07:43.948Z,28.40
2024-03-13T15:10:12.561Z,28.90
2024-03-13T15:12:41.983Z,24.70
2024-03-13T15:15:11.710Z,26.10
2024-03-13T15:17:43.660Z,26.70
2024-03-13T15:20:14.848Z,26.80
2024-03-13T15:22:44.340Z,25.70
2024-03-13T15:25:12.619Z,26.60
2024-03-13T15:27:40.258Z,26.20
2024-03-13T15:30:10.283Z,25.70
2024-03-13T15:32:39.298Z,26.00
2024-03-13T15:35:07.486Z,26.80
2024-03-13T15:37:35.629Z,27.60
2024-03-13T15:40:11.966Z,26.30
2024-03-13T15:42:41.610Z,26.50
2024-03-13T15:45:12.290Z,26.30
2024-03-13T15:47:44.216Z,27.80
2024-03-13T15:50:24.153Z,27.30
2024-03-13T15:52:57.558Z,26.50
2024-03-13T15:55:25.590Z,27.10
2024-03-13T15:57:53.631Z,29.20
2024-03-13T16:00:25.853Z,29.40
2024-03-13T16:02:56.920Z,30.30
2024-03-13T16:05:27.948Z,28.70
2024-03-13T16:08:05.906Z,30.80
2024-03-13T16:10:33.876Z,32.30
2024-03-13T16:13:01.569Z,30.70
2024-03-13T16:15:29.502Z,34.30
2024-03-13T16:17:59.475Z,36.20
2024-03-13T16:20:27.744Z,37.00
2024-03-13T16:22:58.460Z,37.40
2024-03-13T16:25:26.861Z,36.10
2024-03-13T16:27:54.792Z,36.50
2024-03-13T16:30:24.596Z,37.40
2024-03-13T16:32:52.652Z,38.70
2024-03-13T16:35:22.030Z,38.10
2024-03-13T16:37:49.849Z,37.90
2024-03-13T16:40:19.144Z,38.30
2024-03-13T16:42:47.622Z,41.50
2024-03-13T16:45:19.638Z,45.80
2024-03-13T16:47:48.299Z,41.80
2024-03-13T16:50:17.295Z,41.80
2024-03-13T16:52:45.952Z,41.50
2024-03-13T16:55:13.825Z,42.20
2024-03-13T16:57:43.476Z,41.00
2024-03-13T17:00:16.183Z,43.90
2024-03-13T17:02:45.582Z,41.90
2024-03-13T17:05:15.876Z,42.70
2024-03-13T17:07:44.779Z,42.80
2024-03-13T17:10:13.196Z,44.40
2024-03-13T17:12:41.107Z,41.10
2024-03-13T17:15:09.794Z,42.00
2024-03-13T17:17:37.639Z,43.30
2024-03-13T17:20:11.255Z,42.90
2024-03-13T17:22:39.181Z,42.50
2024-03-13T17:25:07.033Z,45.40
2024-03-13T17:27:38.044Z,44.60
2024-03-13T17:30:06.559Z,44.60
2024-03-13T17:32:34.489Z,44.60
2024-03-13T17:35:03.980Z,48.10
2024-03-13T17:37:32.481Z,49.60
2024-03-13T17:40:00.502Z,48.50
2024-03-13T17:42:28.816Z,50.60
2024-03-13T17:44:59.451Z,53.90
2024-03-13T17:47:27.149Z,52.00
2024-03-13T17:49:55.157Z,52.50
2024-03-13T17:52:22.904Z,50.50
2024-03-13T17:54:53.362Z,50.70
2024-03-13T17:57:21.548Z,53.10
2024-03-13T17:59:49.648Z,56.00
2024-03-13T18:02:19.818Z,56.20
2024-03-13T18:04:47.990Z,51.80
2024-03-13T18:07:16.348Z,50.80
2024-03-13T18:09:44.280Z,53.20
2024-03-13T18:12:12.398Z,54.50
2024-03-13T18:14:41.171Z,50.40
2024-03-13T18:17:10.183Z,50.90
2024-03-13T18:19:40.156Z,54.00
2024-03-13T18:22:08.885Z,52.60
2024-03-13T18:24:37.057Z,54.80
2024-03-13T18:27:05.315Z,53.90
2024-03-13T18:29:33.292Z,57.80
2024-03-13T18:32:01.381Z,59.10
2024-03-13T18:34:34.280Z,61.10
2024-03-13T18:37:03.623Z,60.00
2024-03-13T18:39:31.766Z,59.30
2024-03-13T18:41:59.628Z,61.60
2024-03-13T18:44:27.504Z,61.70
2024-03-13T18:46:56.156Z,62.00
2024-03-13T18:49:24.047Z,59.80
2024-03-13T18:51:52.524Z,58.20
2024-03-13T18:54:22.679Z,56.90
2024-03-13T18:56:51.736Z,60.10
2024-03-13T18:59:19.726Z,60.90
2024-03-13T19:01:48.065Z,61.10
2024-03-13T19:04:15.835Z,64.20
2024-03-13T19:06:45.225Z,59.40
2024-03-13T19:09:14.350Z,61.50
2024-03-13T19:11:42.992Z,63.40
2024-03-13T19:14:11.109Z,64.10
2024-03-13T19:16:42.363Z,63.50
2024-03-13T19:19:10.141Z,64.50
2024-03-13T19:21:40.690Z,67.60
2024-03-13T19:24:10.381Z,63.20
2024-03-13T19:26:38.257Z,64.30
2024-03-13T19:29:05.999Z,64.50
2024-03-13T19:31:39.107Z,66.50
2024-03-13T19:34:09.065Z,65.30
2024-03-13T19:36:37.725Z,62.60
2024-03-13T19:39:05.540Z,61.90
2024-03-13T19:41:33.522Z,63.40
2024-03-13T19:44:01.241Z,63.10
2024-03-13T19:46:29.621Z,63.30
2024-03-13T19:48:58.733Z,64.30
2024-03-13T19:51:27.091Z,65.50
2024-03-13T19:53:54.955Z,63.20
2024-03-13T19:56:22.856Z,63.00
2024-03-13T19:58:51.434Z,67.40
2024-03-13T20:01:20.061Z,67.00
2024-03-13T20:03:47.836Z,65.50
2024-03-13T20:06:16.112Z,66.90
2024-03-13T20:08:44.060Z,68.40
2024-03-13T20:11:13.469Z,68.10
2024-03-13T20:13:42.912Z,65.70
2024-03-13T20:16:13.400Z,65.40
2024-03-13T20:18:41.636Z,64.50
2024-03-13T20:21:09.500Z,68.40
2024-03-13T20:23:38.327Z,68.50
2024-03-13T20:26:06.160Z,69.40
2024-03-13T20:28:33.865Z,67.40
2024-03-13T20:31:05.189Z,71.70
2024-03-13T20:33:33.300Z,72.00
2024-03-13T20:36:01.453Z,70.00
2024-03-13T20:38:30.422Z,67.30
2024-03-13T20:40:59.304Z,66.90
2024-03-13T20:43:27.429Z,64.70
2024-03-13T20:45:55.397Z,69.40
2024-03-13T20:48:24.229Z,68.70
2024-03-13T20:50:52.712Z,69.10
2024-03-13T20:53:20.631Z,71.70
2024-03-13T20:55:49.561Z,71.90
2024-03-13T20:58:18.345Z,74.50
2024-03-13T21:00:46.228Z,76.40
2024-03-13T21:03:14.592Z,76.90
2024-03-13T21:05:43.031Z,70.70
2024-03-13T21:08:10.921Z,71.00
2024-03-13T21:10:41.039Z,70.90
2024-03-13T21:13:10.525Z,70.80
2024-03-13T21:15:46.026Z,70.10
2024-03-13T21:18:30.979Z,67.70
2024-03-13T21:20:58.992Z,71.30
2024-03-13T21:23:26.804Z,73.50
2024-03-13T21:25:54.459Z,70.50
2024-03-13T21:28:22.113Z,67.70
2024-03-13T21:30:49.774Z,69.50
2024-03-13T21:33:18.680Z,79.20
2024-03-13T21:35:46.930Z,76.40
2024-03-13T21:38:14.667Z,78.70
2024-03-13T21:40:42.378Z,82.90
2024-03-13T21:43:10.113Z,82.00
2024-03-13T21:45:37.785Z,82.70
2024-03-13T21:48:08.780Z,84.60
2024-03-13T21:50:39.911Z,84.40
2024-03-13T21:53:11.476Z,83.00
2024-03-13T21:55:39.276Z,83.00
2024-03-13T21:58:07.150Z,87.50
2024-03-13T22:00:35.010Z,87.90
2024-03-13T22:03:03.139Z,82.50
2024-03-13T22:05:31.539Z,97.90
2024-03-13T22:08:00.419Z,86.50
2024-03-13T22:10:28.327Z,84.60
2024-03-13T22:12:56.732Z,83.60
2024-03-13T22:15:24.455Z,87.20
2024-03-13T22:17:52.470Z,81.40
2024-03-13T22:20:20.352Z,86.30
2024-03-13T22:22:48.658Z,87.70
2024-03-13T22:25:16.649Z,95.20
2024-03-13T22:27:45.725Z,95.10
2024-03-13T22:30:13.576Z,95.50
2024-03-13T22:32:42.120Z,97.00
2024-03-13T22:35:10.038Z,91.60
2024-03-13T22:37:37.792Z,87.70
2024-03-13T22:40:08.341Z,96.00
2024-03-13T22:42:36.257Z,95.30
2024-03-13T22:45:05.385Z,93.60
2024-03-13T22:47:33.136Z,96.70
2024-03-13T22:50:01.014Z,102.60
2024-03-13T22:52:28.904Z,99.30
2024-03-13T22:54:56.764Z,103.00
2024-03-13T22:57:24.665Z,98.90
2024-03-13T22:59:52.924Z,98.10
2024-03-13T23:02:21.328Z,100.70
2024-03-13T23:04:49.026Z,101.10
2024-03-13T23:07:17.805Z,96.60
2024-03-13T23:09:45.867Z,90.40
2024-03-13T23:12:13.716Z,98.70
2024-03-13T23:14:41.500Z,92.80
2024-03-13T23:17:11.337Z,92.80
2024-03-13T23:19:39.274Z,92.40
2024-03-13T23:22:08.159Z,96.50
2024-03-13T23:24:36.188Z,96.80
2024-03-13T23:27:04.200Z,100.70
2024-03-13T23:29:31.965Z,93.40
2024-03-13T23:32:02.416Z,100.90
2024-03-13T23:34:33.134Z,101.10
2024-03-13T23:37:01.569Z,91.80
2024-03-13T23:39:29.889Z,92.60
2024-03-13T23:41:58.036Z,91.50
2024-03-13T23:44:26.709Z,92.00
2024-03-13T23:46:54.391Z,86.60
2024-03-13T23:49:23.808Z,87.60
2024-03-13T23:51:51.673Z,87.90
2024-03-13T23:54:19.410Z,90.10
2024-03-13T23:56:47.158Z,90.20
2024-03-13T23:59:14.970Z,90.20
